Time;durP1;ratioP1;P1;durP2;ratioP2;P2;SDS_P1;SDS_P2;PMS_P1;PMS_P2;Temp;Humidity;BMP_temperature;BMP_pressure;BME280_temperature;BME280_humidity;BME280_pressure;Samples;Min_cycle;Max_cycle;Signal;HPM_P1;HPM_P2
2023/01/03 00:00:44;;;;;;;;;30.25;27.00;;;;;9.38;78.45;102037.03;4999280;28;50269;-67
2023/01/03 00:03:13;;;;;;;;;23.25;23.25;;;;;9.36;79.35;102053.91;5017441;28;45439;-64
2023/01/03 00:05:41;;;;;;;;;26.00;24.75;;;;;9.34;79.53;102050.41;5017744;28;45453;-62
2023/01/03 00:08:07;;;;;;;;;24.00;20.50;;;;;9.33;79.79;102054.84;4999972;28;45388;-69
2023/01/03 00:10:32;;;;;;;;;26.75;26.75;;;;;9.28;79.15;102043.50;5016291;28;46581;-68
2023/01/03 00:12:57;;;;;;;;;30.25;24.25;;;;;9.29;79.79;102053.22;5032600;28;45404;-67
2023/01/03 00:15:22;;;;;;;;;27.00;24.25;;;;;9.24;79.96;102055.09;5035772;28;45312;-69
2023/01/03 00:17:50;;;;;;;;;30.00;24.25;;;;;9.24;79.58;102055.09;5035593;28;45562;-65
2023/01/03 00:20:15;;;;;;;;;25.75;23.75;;;;;9.23;80.24;102057.81;5035343;28;46328;-62
2023/01/03 00:22:41;;;;;;;;;24.75;24.75;;;;;9.24;79.60;102062.19;5022555;28;45440;-67
2023/01/03 00:25:06;;;;;;;;;24.75;22.50;;;;;9.21;79.22;102075.56;5015495;28;45280;-64
2023/01/03 00:27:32;;;;;;;;;22.75;22.25;;;;;9.19;79.33;102061.47;5015670;28;45282;-65
2023/01/03 00:29:57;;;;;;;;;20.00;19.25;;;;;9.17;79.60;102056.19;5015408;28;45905;-63
2023/01/03 00:32:22;;;;;;;;;21.25;19.00;;;;;9.16;79.87;102051.81;5015756;28;45444;-62
2023/01/03 00:34:48;;;;;;;;;23.00;19.25;;;;;9.14;78.92;102057.16;4998258;28;45265;-62
2023/01/03 00:37:14;;;;;;;;;20.00;15.00;;;;;9.14;79.98;102053.63;4997747;28;45670;-67
2023/01/03 00:39:40;;;;;;;;;25.25;18.25;;;;;9.06;80.07;102039.69;5015055;28;45421;-69
2023/01/03 00:42:06;;;;;;;;;20.00;19.00;;;;;9.10;80.27;102047.50;5013873;28;45507;-64
2023/01/03 00:44:32;;;;;;;;;26.25;19.00;;;;;9.09;80.09;102053.72;4997151;28;45428;-65
2023/01/03 00:46:57;;;;;;;;;18.75;18.25;;;;;9.07;79.54;102057.34;5014142;28;45277;-65
2023/01/03 00:49:23;;;;;;;;;23.00;19.00;;;;;8.98;79.97;102045.19;4997474;28;47049;-65
2023/01/03 00:51:49;;;;;;;;;16.75;15.00;;;;;9.04;80.09;102055.66;4997103;28;45373;-64
2023/01/03 00:54:15;;;;;;;;;17.25;16.00;;;;;9.03;81.17;102050.38;5014804;28;45369;-64
2023/01/03 00:56:43;;;;;;;;;20.75;20.75;;;;;9.06;80.85;102058.25;5015574;28;45418;-65
2023/01/03 00:59:09;;;;;;;;;19.50;17.75;;;;;9.06;80.80;102060.91;5014849;28;45442;-65
2023/01/03 01:01:38;;;;;;;;;25.00;22.75;;;;;9.03;80.12;102050.38;5014856;28;45431;-64
2023/01/03 01:04:07;;;;;;;;;23.25;18.50;;;;;9.04;80.41;102047.69;5014589;28;45221;-62
2023/01/03 01:06:36;;;;;;;;;17.50;15.75;;;;;9.05;80.32;102048.56;5014768;28;45251;-65
2023/01/03 01:09:04;;;;;;;;;20.75;17.25;;;;;9.00;79.84;102042.50;5014490;28;45577;-61
2023/01/03 01:11:30;;;;;;;;;25.25;19.75;;;;;9.04;80.44;102052.13;4976319;28;1103223;-69
2023/01/03 01:13:56;;;;;;;;;20.50;17.75;;;;;9.02;79.86;102059.25;5015862;28;45250;-62
2023/01/03 01:16:25;;;;;;;;;21.50;17.25;;;;;9.00;80.15;102051.34;5016421;28;45231;-63
2023/01/03 01:18:55;;;;;;;;;18.50;18.25;;;;;9.02;80.44;102061.91;5016004;28;45905;-63
2023/01/03 01:21:29;;;;;;;;;18.50;15.25;;;;;9.00;80.29;102051.34;5014670;28;45568;-64
2023/01/03 01:23:55;;;;;;;;;17.75;16.00;;;;;8.99;80.37;102059.34;5016018;28;45249;-62
2023/01/03 01:26:22;;;;;;;;;16.25;14.00;;;;;8.95;80.36;102047.03;5016170;28;45380;-60
2023/01/03 01:28:49;;;;;;;;;18.75;18.75;;;;;8.89;80.67;102041.91;5016051;28;45410;-62
2023/01/03 01:31:17;;;;;;;;;18.50;16.50;;;;;8.93;80.75;102062.13;5016401;28;45585;-64
2023/01/03 01:33:42;;;;;;;;;23.00;18.00;;;;;8.92;79.67;102061.28;5016242;28;45389;-64
2023/01/03 01:36:21;;;;;;;;;16.75;14.75;;;;;8.95;79.98;102069.16;5016023;28;45323;-70
2023/01/03 01:38:51;;;;;;;;;26.25;21.25;;;;;8.92;80.59;102063.94;5016088;28;46215;-62
2023/01/03 01:44:36;;;;;;;;;12.50;11.75;;;;;8.82;79.97;102050.00;5016119;28;45685;-62
2023/01/03 01:46:50;;;;;;;;;15.00;14.25;;;;;8.94;80.63;102074.50;5016247;28;45233;-69
2023/01/03 01:49:24;;;;;;;;;15.00;14.00;;;;;8.93;79.29;102070.09;5016119;28;45347;-62
2023/01/03 01:51:50;;;;;;;;;19.25;17.00;;;;;8.92;80.33;102069.22;5016476;28;45356;-62
2023/01/03 01:54:17;;;;;;;;;9.75;9.75;;;;;8.84;80.36;102061.47;5016682;28;45407;-61
2023/01/03 01:56:47;;;;;;;;;13.50;13.50;;;;;8.89;79.97;102071.09;5015779;28;45171;-60
2023/01/03 01:59:14;;;;;;;;;12.25;10.50;;;;;8.88;80.37;102077.31;5015744;28;46558;-61
2023/01/03 02:01:43;;;;;;;;;14.50;14.50;;;;;8.90;79.98;102078.16;4997626;28;45323;-66
2023/01/03 02:04:29;;;;;;;;;11.25;10.00;;;;;8.86;80.54;102083.53;5015318;28;45413;-67
2023/01/03 02:06:56;;;;;;;;;13.75;11.75;;;;;8.81;80.20;102077.47;5015647;28;45316;-67
2023/01/03 02:09:21;;;;;;;;;12.50;12.50;;;;;8.84;80.67;102082.69;5015207;28;45439;-68
2023/01/03 02:13:04;;;;;;;;;14.00;10.00;;;;;8.76;81.10;102071.41;5022634;28;45410;-70
2023/01/03 02:14:50;;;;;;;;;16.50;10.50;;;;;8.78;80.39;102077.53;5035115;28;45225;-68
2023/01/03 02:17:37;;;;;;;;;11.75;10.50;;;;;8.80;80.51;102088.97;5036072;28;45399;-68
2023/01/03 02:20:17;;;;;;;;;13.50;11.00;;;;;8.82;80.82;102089.81;5035077;28;45353;-64
2023/01/03 02:22:57;;;;;;;;;13.50;12.75;;;;;8.82;80.19;102084.50;5035140;28;45449;-67
2023/01/03 02:25:40;;;;;;;;;14.75;11.00;;;;;8.81;80.10;102093.38;5035269;28;45373;-70
2023/01/03 02:28:29;;;;;;;;;15.50;12.50;;;;;8.78;80.82;102082.84;5035275;28;45585;-68
2023/01/03 02:31:06;;;;;;;;;15.25;11.25;;;;;8.81;80.48;102092.50;5034359;28;45819;-61
2023/01/03 02:33:40;;;;;;;;;14.75;10.00;;;;;8.80;80.79;102102.25;5037264;28;45301;-67
2023/01/03 02:36:13;;;;;;;;;12.25;11.00;;;;;8.82;79.99;102092.47;5038461;28;45356;-69
2023/01/03 02:38:49;;;;;;;;;11.50;10.25;;;;;8.81;80.81;102093.38;5038765;28;45376;-70
2023/01/03 02:41:24;;;;;;;;;15.50;13.50;;;;;8.75;81.05;102082.06;5038326;28;46253;-65
2023/01/03 02:43:57;;;;;;;;;11.00;10.00;;;;;8.83;80.72;102096.00;5038201;28;45362;-65
2023/01/03 02:46:29;;;;;;;;;12.25;10.25;;;;;8.81;81.33;102100.47;5038437;28;45356;-68
2023/01/03 02:49:02;;;;;;;;;10.00;10.00;;;;;8.80;80.76;102104.03;5020528;28;45658;-65
2023/01/03 02:51:35;;;;;;;;;14.00;11.25;;;;;8.83;80.70;102088.91;5037853;28;46233;-66
2023/01/03 02:54:05;;;;;;;;;12.50;9.75;;;;;8.83;80.04;102086.25;5038525;28;45732;-63
2023/01/03 02:57:17;;;;;;;;;11.25;9.50;;;;;8.83;80.26;102091.56;5004813;28;45373;-70
2023/01/03 03:00:07;;;;;;;;;13.50;10.00;;;;;8.86;80.64;102086.19;5016540;28;45352;-68
2023/01/03 03:02:35;;;;;;;;;10.50;10.00;;;;;8.93;80.81;102096.63;5038115;28;45343;-65
2023/01/03 03:05:05;;;;;;;;;12.50;11.00;;;;;9.00;79.83;102095.59;5038102;28;45197;-65
2023/01/03 03:07:35;;;;;;;;;8.75;8.50;;;;;9.05;80.22;102091.03;5037801;28;45304;-62
2023/01/03 03:15:48;;;;;;;;;9.25;9.25;;;;;9.17;80.59;102090.69;5017890;28;45990;-67
2023/01/03 03:18:20;;;;;;;;;9.00;9.00;;;;;9.16;79.41;102087.19;5017995;28;45332;-67
2023/01/03 03:26:25;;;;;;;;;9.00;6.50;;;;;9.21;79.44;102076.44;5018107;28;45406;-70
2023/01/03 03:28:56;;;;;;;;;10.00;8.25;;;;;9.24;79.37;102089.59;5017431;28;45407;-66
2023/01/03 03:31:43;;;;;;;;;11.75;10.00;;;;;9.26;79.86;102089.59;5000444;28;45580;-64
2023/01/03 03:34:17;;;;;;;;;11.00;8.50;;;;;9.28;79.34;102088.63;5017443;28;46191;-69
2023/01/03 03:36:57;;;;;;;;;9.25;7.25;;;;;9.25;79.24;102082.53;4999857;28;45430;-69
2023/01/03 03:45:36;;;;;;;;;9.25;9.25;;;;;9.29;79.66;102086.84;5016383;28;45760;-63
2023/01/03 03:48:11;;;;;;;;;7.75;7.00;;;;;9.24;79.29;102078.13;5017660;28;45265;-64
2023/01/03 03:50:46;;;;;;;;;10.00;7.00;;;;;9.27;80.00;102088.69;5017583;28;45253;-62
2023/01/03 03:53:15;;;;;;;;;9.75;9.00;;;;;9.22;79.47;102072.84;5017082;28;45218;-61
2023/01/03 03:56:02;;;;;;;;;12.00;11.00;;;;;9.33;79.14;102086.72;5017214;28;45412;-61
2023/01/03 03:58:39;;;;;;;;;6.00;6.00;;;;;9.34;79.27;102088.47;5017457;28;45403;-64
2023/01/03 04:01:06;;;;;;;;;11.00;9.25;;;;;9.37;78.59;102095.47;5017366;28;45293;-62
2023/01/03 04:03:33;;;;;;;;;11.50;7.25;;;;;9.38;78.69;102091.91;4999914;28;45362;-63
2023/01/03 04:06:10;;;;;;;;;9.00;6.00;;;;;9.39;78.98;102096.31;5017285;28;46409;-67
2023/01/03 04:08:36;;;;;;;;;5.50;3.00;;;;;9.32;78.97;102074.34;4999737;28;45536;-67
2023/01/03 04:11:04;;;;;;;;;3.00;1.50;;;;;9.31;80.22;102075.28;5000090;28;45415;-71
2023/01/03 04:13:33;;;;;;;;;6.00;2.00;;;;;9.34;79.84;102085.81;5036394;28;45637;-69
2023/01/03 04:15:59;;;;;;;;;5.00;5.00;;;;;9.09;79.88;102058.16;5036666;28;46566;-64
2023/01/03 04:18:25;;;;;;;;;3.50;3.00;;;;;9.28;80.31;102099.25;5036653;28;45392;-62
2023/01/03 04:20:50;;;;;;;;;3.00;3.00;;;;;9.26;79.57;102095.78;5037559;28;45427;-61
2023/01/03 04:23:15;;;;;;;;;6.50;3.25;;;;;9.19;79.40;102093.31;5036780;28;45585;-65
2023/01/03 04:25:42;;;;;;;;;1.00;1.00;;;;;9.15;80.39;102104.00;5036672;28;45498;-61
2023/01/03 04:28:07;;;;;;;;;6.75;6.75;;;;;9.06;80.45;102090.97;5036682;28;45422;-62
2023/01/03 04:30:33;;;;;;;;;5.75;5.75;;;;;9.16;79.94;102112.84;5033986;28;45513;-62
2023/01/03 04:33:03;;;;;;;;;7.50;6.50;;;;;9.09;80.17;102108.59;5036308;28;45638;-62
2023/01/03 04:35:29;;;;;;;;;7.50;7.50;;;;;9.11;79.77;102112.06;5036512;28;45269;-60
2023/01/03 04:37:54;;;;;;;;;5.25;3.00;;;;;9.06;80.46;102104.25;5019057;28;45458;-67
2023/01/03 04:40:20;;;;;;;;;7.00;5.75;;;;;9.09;80.18;102119.22;5036595;28;45301;-62
2023/01/03 04:45:29;;;;;;;;;6.00;6.00;;;;;9.13;79.51;102120.91;5036295;28;45560;-66
2023/01/03 04:47:54;;;;;;;;;6.75;5.25;;;;;9.09;79.88;102120.09;5036628;28;45468;-69
2023/01/03 04:50:19;;;;;;;;;9.50;8.00;;;;;9.08;80.43;102117.47;5036449;28;45311;-64
2023/01/03 04:52:45;;;;;;;;;8.25;8.25;;;;;9.08;80.55;102112.16;5036546;28;45510;-68
2023/01/03 04:55:11;;;;;;;;;6.25;5.00;;;;;9.12;80.06;102121.81;5035714;28;47987;-68
2023/01/03 04:57:37;;;;;;;;;5.75;5.00;;;;;9.11;80.09;102118.28;5018587;28;45341;-64
2023/01/03 05:00:03;;;;;;;;;7.25;5.25;;;;;9.09;79.53;102114.78;5018168;28;45527;-63
2023/01/03 05:02:28;;;;;;;;;2.75;2.75;;;;;9.12;79.47;102127.13;5036525;28;45594;-67
2023/01/03 05:04:54;;;;;;;;;7.75;5.00;;;;;9.12;80.23;102135.09;5036483;28;45411;-63
2023/01/03 05:07:19;;;;;;;;;7.75;7.00;;;;;9.07;79.99;102126.34;5035545;28;45439;-64
2023/01/03 05:09:44;;;;;;;;;9.50;6.00;;;;;9.07;79.26;102135.19;5036580;28;45359;-68
2023/01/03 05:12:11;;;;;;;;;5.00;5.00;;;;;9.05;80.01;102133.47;5026333;28;45539;-64
2023/01/03 05:14:40;;;;;;;;;5.50;5.50;;;;;9.07;79.88;102131.66;5017636;28;46518;-61
2023/01/03 05:17:06;;;;;;;;;9.25;5.25;;;;;8.98;80.08;102139.84;5017128;28;45301;-60
2023/01/03 05:19:32;;;;;;;;;5.25;5.25;;;;;8.95;80.48;102137.25;5016643;28;45269;-66
2023/01/03 05:27:26;;;;;;;;;5.75;5.00;;;;;8.93;80.00;102145.25;5016175;28;45312;-67
2023/01/03 05:29:53;;;;;;;;;7.00;5.00;;;;;8.92;79.82;102134.69;5015619;28;45365;-66
2023/01/03 05:32:19;;;;;;;;;4.00;3.00;;;;;8.97;79.29;102152.22;5016215;28;45321;-67
2023/01/03 05:34:45;;;;;;;;;8.25;5.75;;;;;8.99;80.04;102154.88;5015286;28;45357;-67
2023/01/03 05:37:10;;;;;;;;;5.50;5.50;;;;;8.93;79.78;102152.34;5015792;28;45224;-62
2023/01/03 05:39:35;;;;;;;;;5.50;5.25;;;;;8.92;80.08;102158.56;5015613;28;45421;-67
2023/01/03 05:42:01;;;;;;;;;7.00;5.50;;;;;8.90;79.99;102150.66;5015911;28;45574;-70
2023/01/03 05:44:29;;;;;;;;;9.00;7.00;;;;;8.83;79.76;102155.22;5015860;28;45646;-65
2023/01/03 05:46:55;;;;;;;;;6.00;6.00;;;;;8.77;80.35;102139.47;5016026;28;45428;-72
2023/01/03 05:49:21;;;;;;;;;9.75;6.00;;;;;8.88;80.05;102146.31;5015953;28;45266;-64
2023/01/03 05:51:46;;;;;;;;;7.00;5.25;;;;;8.89;80.14;102148.03;5015925;28;45421;-62
2023/01/03 05:54:14;;;;;;;;;6.00;3.50;;;;;8.87;79.65;102148.09;5014801;28;45356;-65
2023/01/03 05:56:39;;;;;;;;;5.25;3.00;;;;;8.79;80.08;102134.13;5015752;28;45320;-68
2023/01/03 05:59:06;;;;;;;;;6.00;5.50;;;;;8.80;79.70;102151.78;5015638;28;45448;-70
2023/01/03 06:01:32;;;;;;;;;5.00;5.00;;;;;8.74;80.26;102150.16;5015758;28;45253;-67
2023/01/03 06:03:58;;;;;;;;;4.50;3.00;;;;;8.63;79.98;102143.34;5015429;28;45391;-69
2023/01/03 06:06:23;;;;;;;;;6.00;6.00;;;;;8.68;79.84;102144.97;5015464;28;45221;-69
2023/01/03 06:08:49;;;;;;;;;3.00;3.00;;;;;8.52;80.15;102120.59;5000534;28;45215;-67
2023/01/03 06:11:15;;;;;;;;;6.50;6.50;;;;;8.75;79.88;102159.84;5004223;28;45534;-65
2023/01/03 06:13:40;;;;;;;;;5.75;5.75;;;;;8.81;79.56;102157.03;5038376;28;45411;-62
2023/01/03 06:18:58;;;;;;;;;11.50;9.50;;;;;8.83;79.65;102165.84;5039050;28;45328;-65
2023/01/03 06:21:24;;;;;;;;;12.50;5.50;;;;;8.78;79.55;102167.72;5038922;28;45372;-63
2023/01/03 06:23:49;;;;;;;;;10.00;6.00;;;;;8.80;79.09;102170.34;5038361;28;46233;-69
2023/01/03 06:26:17;;;;;;;;;9.25;2.75;;;;;8.70;79.41;102164.38;5038280;28;45492;-67
2023/01/03 06:28:43;;;;;;;;;3.00;3.00;;;;;8.65;80.42;102170.72;5038632;28;45391;-67
2023/01/03 06:31:09;;;;;;;;;7.00;5.25;;;;;8.68;79.90;102176.81;5038743;28;45365;-70
2023/01/03 06:33:34;;;;;;;;;6.50;6.25;;;;;8.76;80.15;102185.47;5038389;28;45434;-65
2023/01/03 06:36:05;;;;;;;;;8.50;6.00;;;;;8.71;79.37;102176.72;5038616;28;45249;-66
2023/01/03 06:38:30;;;;;;;;;6.00;6.00;;;;;8.74;78.87;102181.97;5038595;28;45295;-69
2023/01/03 06:40:56;;;;;;;;;6.00;6.00;;;;;8.66;79.70;102162.72;5038193;28;45645;-61
2023/01/03 06:43:21;;;;;;;;;10.00;5.75;;;;;8.76;79.08;102187.25;5037757;28;46073;-68
2023/01/03 06:54:04;;;;;;;;;9.50;5.00;;;;;8.78;79.43;102188.97;5038090;28;45479;-66
2023/01/03 06:56:29;;;;;;;;;8.50;6.50;;;;;8.76;79.81;102190.78;5020366;28;45271;-60
2023/01/03 06:58:55;;;;;;;;;4.25;3.00;;;;;8.71;79.51;102186.47;5038207;28;45179;-63
2023/01/03 07:01:21;;;;;;;;;6.50;5.75;;;;;8.68;80.15;102184.75;5038554;28;45608;-60
2023/01/03 07:03:46;;;;;;;;;8.50;6.00;;;;;8.75;79.87;102196.13;5037546;28;46239;-62
2023/01/03 07:06:12;;;;;;;;;5.00;5.00;;;;;8.74;79.61;102197.91;5038231;28;45225;-70
2023/01/03 07:08:37;;;;;;;;;6.00;6.00;;;;;8.77;79.50;102200.47;5037982;28;45294;-68
2023/01/03 07:11:02;;;;;;;;;13.50;6.75;;;;;8.74;80.45;102200.56;5037397;28;45381;-68
2023/01/03 07:16:13;;;;;;;;;7.50;5.00;;;;;8.83;79.97;102200.31;5017888;28;45180;-65
2023/01/03 07:18:39;;;;;;;;;7.50;6.00;;;;;8.73;79.78;102190.84;5017734;28;45245;-63
2023/01/03 07:21:08;;;;;;;;;7.50;6.00;;;;;8.81;79.35;102202.13;5018400;28;45467;-64
2023/01/03 07:23:34;;;;;;;;;5.00;2.75;;;;;8.82;80.22;102201.22;5018113;28;45382;-66
2023/01/03 07:25:59;;;;;;;;;5.00;3.00;;;;;8.90;79.67;102213.47;5018102;28;45250;-64
2023/01/03 07:28:25;;;;;;;;;8.25;3.50;;;;;8.82;80.12;102198.56;5017744;28;45360;-65
2023/01/03 07:30:50;;;;;;;;;11.00;5.25;;;;;8.93;80.26;102213.38;5017900;28;45619;-66
2023/01/03 07:33:17;;;;;;;;;7.25;7.25;;;;;8.96;79.78;102218.59;5017817;28;45364;-69
2023/01/03 07:35:44;;;;;;;;;8.75;7.00;;;;;8.97;79.03;102221.22;5017699;28;45390;-67
2023/01/03 07:38:11;;;;;;;;;7.50;6.25;;;;;8.99;79.17;102216.78;5017369;28;45342;-63
2023/01/03 07:40:37;;;;;;;;;7.50;7.50;;;;;9.01;79.28;102224.69;5017502;28;45296;-65
2023/01/03 07:45:48;;;;;;;;;7.00;7.00;;;;;9.12;78.74;102222.66;5017372;28;45303;-67
2023/01/03 07:48:14;;;;;;;;;8.00;5.75;;;;;9.10;79.57;102217.38;5017062;28;45419;-66
2023/01/03 07:50:40;;;;;;;;;8.75;7.25;;;;;9.14;78.73;102223.50;5017395;28;45491;-65
2023/01/03 07:53:07;;;;;;;;;8.25;6.25;;;;;9.08;78.76;102220.97;5017686;28;46175;-70
2023/01/03 07:55:34;;;;;;;;;8.25;7.75;;;;;9.12;79.40;102226.19;5017375;28;45325;-66
2023/01/03 07:57:59;;;;;;;;;12.25;9.25;;;;;9.09;78.81;102226.25;5017493;28;45218;-66
2023/01/03 08:00:25;;;;;;;;;12.00;10.25;;;;;9.06;78.14;102220.16;5017086;28;45491;-69
2023/01/03 08:02:53;;;;;;;;;10.25;7.25;;;;;9.14;78.97;102244.72;5016780;28;46073;-74
2023/01/03 08:05:18;;;;;;;;;9.75;7.50;;;;;9.08;79.26;102239.56;4999600;28;45498;-67
2023/01/03 08:07:46;;;;;;;;;6.50;5.75;;;;;9.08;78.51;102231.59;5017982;28;45348;-68
2023/01/03 08:13:18;;;;;;;;;7.00;7.00;;;;;9.02;79.24;102229.09;5034114;28;45379;-71
2023/01/03 08:15:52;;;;;;;;;8.50;6.00;;;;;9.08;79.37;102266.09;5037217;28;45357;-62
2023/01/03 08:18:27;;;;;;;;;10.25;7.00;;;;;8.89;79.74;102238.25;5020102;28;45458;-70
2023/01/03 08:20:55;;;;;;;;;7.00;7.00;;;;;9.07;79.77;102261.69;5019508;28;45560;-62
2023/01/03 08:23:25;;;;;;;;;15.00;8.50;;;;;8.94;79.36;102249.63;5036678;28;46220;-64
2023/01/03 08:25:50;;;;;;;;;9.75;9.75;;;;;8.96;79.20;102256.63;5037434;28;45335;-67
2023/01/03 08:28:19;;;;;;;;;5.00;5.00;;;;;9.05;79.81;102255.56;5036406;28;45365;-65
2023/01/03 08:30:47;;;;;;;;;6.50;6.50;;;;;8.90;79.64;102229.38;5037486;28;45281;-66
2023/01/03 08:33:15;;;;;;;;;8.25;6.75;;;;;9.05;79.90;102255.56;5036738;28;46099;-64
2023/01/03 08:35:48;;;;;;;;;9.00;7.75;;;;;9.15;79.34;102273.03;5036937;28;45297;-66
2023/01/03 08:38:17;;;;;;;;;9.75;7.00;;;;;9.00;78.56;102241.53;5037202;28;45418;-67
2023/01/03 08:40:45;;;;;;;;;6.75;6.00;;;;;9.14;78.09;102269.50;5019569;28;45554;-68
2023/01/03 08:43:13;;;;;;;;;5.00;5.00;;;;;8.99;78.93;102255.72;5019024;28;45424;-64
2023/01/03 08:45:39;;;;;;;;;9.50;7.50;;;;;9.09;79.38;102265.19;5037006;28;45320;-61
2023/01/03 08:48:05;;;;;;;;;9.25;7.75;;;;;9.09;79.25;102279.31;5037300;28;45934;-64
2023/01/03 08:50:31;;;;;;;;;6.50;5.00;;;;;9.05;79.18;102271.47;5019231;28;45367;-65
2023/01/03 08:52:57;;;;;;;;;8.25;8.25;;;;;9.08;79.29;102274.06;5037161;28;45379;-68
2023/01/03 08:55:22;;;;;;;;;9.00;9.00;;;;;9.13;79.49;102278.38;5036055;28;45352;-64
2023/01/03 08:57:48;;;;;;;;;11.50;9.25;;;;;9.11;79.90;102273.97;5036334;28;45357;-65
2023/01/03 09:00:14;;;;;;;;;9.00;6.50;;;;;9.10;79.59;102269.59;5037210;28;45270;-65
2023/01/03 09:02:39;;;;;;;;;10.00;6.75;;;;;9.12;78.69;102268.66;5052031;28;46439;-64
2023/01/03 09:05:06;;;;;;;;;8.75;8.75;;;;;9.20;78.29;102271.13;5036322;28;45570;-64
2023/01/03 09:07:32;;;;;;;;;6.50;6.50;;;;;9.14;78.63;102263.31;5036656;28;45440;-63
2023/01/03 09:09:57;;;;;;;;;10.50;8.00;;;;;9.17;78.75;102287.13;5019419;28;45461;-64
2023/01/03 09:12:30;;;;;;;;;9.50;9.50;;;;;9.19;78.20;102272.03;5036006;28;46223;-66
2023/01/03 09:14:56;;;;;;;;;10.50;10.50;;;;;9.13;78.92;102262.44;5036611;28;45429;-64
2023/01/03 09:17:21;;;;;;;;;10.25;6.25;;;;;9.18;78.97;102269.41;5036009;28;45324;-63
2023/01/03 09:19:47;;;;;;;;;10.50;9.25;;;;;9.08;78.61;102255.47;5036511;28;45485;-64
2023/01/03 09:22:12;;;;;;;;;14.50;9.00;;;;;9.22;78.70;102282.56;5035669;28;45996;-62
2023/01/03 09:24:38;;;;;;;;;8.50;6.75;;;;;9.23;78.64;102289.63;5035938;28;45356;-63
2023/01/03 09:27:03;;;;;;;;;7.75;7.75;;;;;9.15;79.08;102267.72;5036135;28;45404;-61
2023/01/03 09:29:28;;;;;;;;;10.50;10.50;;;;;9.32;77.48;102280.56;5035322;28;45601;-63
2023/01/03 09:31:54;;;;;;;;;9.50;9.50;;;;;9.39;77.73;102287.50;5035778;28;45427;-61
2023/01/03 09:34:19;;;;;;;;;11.50;10.00;;;;;9.50;77.72;102288.09;5035112;28;52931;-62
2023/01/03 09:36:44;;;;;;;;;10.25;8.50;;;;;9.49;77.24;102290.78;5035058;28;45400;-63
2023/01/03 09:39:10;;;;;;;;;10.25;9.50;;;;;9.42;77.73;102277.66;5013658;28;45663;-62
2023/01/03 09:41:38;;;;;;;;;13.50;9.25;;;;;9.37;78.03;102268.91;5014838;28;46264;-62
2023/01/03 09:44:06;;;;;;;;;10.50;10.50;;;;;9.44;78.07;102291.78;5000882;28;45235;-63
2023/01/03 09:46:34;;;;;;;;;9.50;6.75;;;;;9.42;78.24;102282.97;5019342;28;45424;-64
2023/01/03 09:49:01;;;;;;;;;6.50;5.75;;;;;9.41;78.06;102270.63;5001917;28;45534;-63
2023/01/03 10:03:45;;;;;;;;;11.00;7.00;;;;;9.61;77.84;102299.31;5019371;28;45761;-67
2023/01/03 10:06:44;;;;;;;;;6.00;6.00;;;;;9.60;77.25;102300.22;5022278;28;45371;-69
2023/01/03 10:09:33;;;;;;;;;9.50;7.00;;;;;9.51;77.06;102267.75;5022847;28;45314;-61
2023/01/03 10:12:14;;;;;;;;;13.50;6.50;;;;;9.70;77.15;102304.41;5019308;28;45504;-60
2023/01/03 10:14:52;;;;;;;;;11.25;10.25;;;;;9.83;76.53;102304.09;5019245;28;45483;-61
2023/01/03 10:17:20;;;;;;;;;7.25;6.75;;;;;9.74;76.30;102302.53;5018881;28;45435;-61
2023/01/03 10:19:52;;;;;;;;;10.25;8.25;;;;;9.63;76.51;102301.94;5001381;28;45436;-65
2023/01/03 10:22:21;;;;;;;;;10.00;6.00;;;;;9.62;77.17;102313.47;5018698;28;45562;-61
2023/01/03 10:24:54;;;;;;;;;3.50;3.50;;;;;9.59;76.49;102306.47;5019027;28;46042;-63
2023/01/03 10:27:22;;;;;;;;;8.00;6.75;;;;;9.49;77.04;102296.97;5001318;28;45456;-65
2023/01/03 10:30:01;;;;;;;;;7.00;5.00;;;;;9.54;76.67;102312.81;5018741;28;45357;-62
2023/01/03 10:32:48;;;;;;;;;6.75;6.75;;;;;9.68;76.94;102310.69;5001586;28;45399;-66
2023/01/03 10:35:22;;;;;;;;;7.50;6.25;;;;;9.82;76.36;102310.34;5019009;28;45454;-65
2023/01/03 10:37:51;;;;;;;;;9.00;8.25;;;;;9.80;76.16;102302.41;5018951;28;45349;-68
2023/01/03 10:40:17;;;;;;;;;14.75;10.25;;;;;9.93;75.87;102308.28;5000481;28;45385;-69
2023/01/03 10:42:44;;;;;;;;;6.00;6.00;;;;;9.91;75.97;102287.06;5000966;28;45398;-66
2023/01/03 10:45:19;;;;;;;;;10.75;7.00;;;;;10.08;75.09;102307.00;5001005;28;47659;-62
2023/01/03 10:48:00;;;;;;;;;9.25;7.00;;;;;10.03;75.41;102285.88;5018445;28;45283;-63
2023/01/03 10:50:26;;;;;;;;;5.75;3.00;;;;;10.08;74.83;102299.03;5001430;28;45420;-63
2023/01/03 10:53:12;;;;;;;;;3.00;2.75;;;;;9.96;75.50;102301.09;5018357;28;45520;-63
2023/01/03 10:55:46;;;;;;;;;5.00;5.00;;;;;9.86;76.11;102293.38;5018402;28;46302;-62
2023/01/03 10:58:17;;;;;;;;;10.50;4.00;;;;;9.72;75.44;102293.75;5000177;28;45277;-61
2023/01/03 11:00:42;;;;;;;;;6.50;5.50;;;;;9.74;76.21;102305.19;5018893;28;45367;-62
2023/01/03 11:03:08;;;;;;;;;6.75;5.50;;;;;9.70;75.99;102303.53;5017759;28;51486;-63
2023/01/03 11:05:35;;;;;;;;;8.25;5.00;;;;;9.79;76.03;102303.31;5018376;28;46854;-63
2023/01/03 11:08:03;;;;;;;;;10.00;7.75;;;;;9.97;75.54;102293.97;5018098;28;45434;-66
2023/01/03 11:10:47;;;;;;;;;7.25;6.00;;;;;9.99;75.39;102282.41;4999810;28;45395;-64
2023/01/03 11:13:22;;;;;;;;;6.75;6.50;;;;;10.05;74.94;102297.31;5037172;28;45424;-67
2023/01/03 11:15:53;;;;;;;;;6.00;5.00;;;;;9.93;74.64;102274.59;5037990;28;45277;-63
2023/01/03 11:18:19;;;;;;;;;8.00;5.00;;;;;9.90;75.68;102285.31;5020449;28;45395;-62
2023/01/03 11:21:17;;;;;;;;;7.00;3.50;;;;;9.97;74.93;102281.56;5038422;28;45447;-67
2023/01/03 11:23:48;;;;;;;;;2.67;2.67;;;;;9.98;75.18;102277.13;5037949;28;45371;-65
2023/01/03 11:26:19;;;;;;;;;15.50;8.50;;;;;10.05;75.31;102282.25;5038556;28;45344;-64
2023/01/03 11:29:03;;;;;;;;;7.75;6.00;;;;;9.90;75.17;102280.00;5037980;28;45353;-67
2023/01/03 11:32:13;;;;;;;;;6.00;6.00;;;;;9.99;76.22;102271.75;5037371;28;45229;-65
2023/01/03 11:35:12;;;;;;;;;6.50;6.00;;;;;10.09;75.71;102274.19;5029345;28;45459;-62
2023/01/03 11:37:56;;;;;;;;;9.00;6.25;;;;;10.08;75.59;102272.44;5036971;28;46668;-67
2023/01/03 11:40:48;;;;;;;;;9.00;9.00;;;;;10.23;75.38;102272.03;5022533;28;45202;-65
2023/01/03 11:43:35;;;;;;;;;5.50;4.75;;;;;10.23;74.80;102272.03;5016774;28;45588;-68
2023/01/03 11:46:15;;;;;;;;;6.00;6.00;;;;;10.20;74.17;102272.97;5017487;28;45388;-65
2023/01/03 11:49:38;;;;;;;;;9.25;6.75;;;;;10.15;74.33;102274.88;5018024;28;46605;-65
2023/01/03 11:52:03;;;;;;;;;7.50;6.00;;;;;10.25;74.88;102287.03;4956113;28;45425;-65
2023/01/03 11:55:17;;;;;;;;;7.00;3.00;;;;;10.19;74.25;102271.22;4956084;28;45367;-67
2023/01/03 11:57:54;;;;;;;;;6.33;5.00;;;;;10.23;74.58;102272.03;4999215;28;45351;-66
2023/01/03 12:00:40;;;;;;;;;4.33;4.33;;;;;10.29;74.61;102255.94;5017878;28;45534;-65
2023/01/03 12:03:27;;;;;;;;;7.00;7.00;;;;;10.42;73.69;102267.97;5016900;28;45240;-65
2023/01/03 12:06:13;;;;;;;;;9.25;7.00;;;;;10.45;74.28;102262.56;5016512;28;45463;-67
2023/01/03 12:08:41;;;;;;;;;4.00;4.00;;;;;10.59;73.39;102260.34;5017075;28;45639;-68
2023/01/03 12:11:26;;;;;;;;;5.00;5.00;;;;;10.47;73.83;102233.25;5016657;28;46170;-64
2023/01/03 12:14:09;;;;;;;;;5.67;3.67;;;;;10.54;72.61;102251.63;5016731;28;45270;-67
2023/01/03 12:16:44;;;;;;;;;5.00;3.00;;;;;10.42;73.04;102243.16;5016932;28;45264;-65
2023/01/03 12:19:25;;;;;;;;;6.00;5.00;;;;;10.48;73.71;102241.19;4999290;28;45628;-67
2023/01/03 12:21:56;;;;;;;;;10.00;6.00;;;;;10.46;73.61;102228.84;5017637;28;46036;-65
2023/01/03 12:24:38;;;;;;;;;6.75;6.75;;;;;10.62;73.50;102248.75;5015911;28;45310;-63
2023/01/03 12:27:16;;;;;;;;;8.00;3.00;;;;;10.55;72.97;102237.44;5016993;28;45568;-67
2023/01/03 12:29:57;;;;;;;;;5.00;5.00;;;;;10.53;73.33;102239.25;5017071;28;45707;-66
2023/01/03 12:32:46;;;;;;;;;9.67;5.00;;;;;10.52;73.25;102241.94;4998548;28;47605;-66
2023/01/03 12:35:45;;;;;;;;;5.67;4.00;;;;;10.47;73.95;102239.44;5016674;28;45445;-67
2023/01/03 12:38:11;;;;;;;;;3.00;3.00;;;;;10.41;73.42;102225.44;4989425;28;45470;-65
2023/01/03 12:40:55;;;;;;;;;8.67;6.67;;;;;10.45;73.70;102230.63;5016485;28;45523;-66
2023/01/03 12:43:59;;;;;;;;;4.00;4.00;;;;;10.54;73.16;102225.03;5016545;28;46495;-63